createdAt,value
2023-04-01T00:01:01.890Z,99783.44
2023-04-01T00:03:29.520Z,99786.03
2023-04-01T00:05:58.238Z,99776.63
2023-04-01T00:08:25.544Z,99782.69
2023-04-01T00:10:54.278Z,99798.16
2023-04-01T00:13:21.672Z,99795.59
2023-04-01T00:15:48.673Z,99802.50
2023-04-01T00:18:15.240Z,99812.00
2023-04-01T00:20:49.869Z,99806.03
2023-04-01T00:23:16.908Z,99815.53
2023-04-01T00:25:44.798Z,99806.13
2023-04-01T00:28:11.298Z,99808.75
2023-04-01T00:30:38.613Z,99818.22
2023-04-01T00:33:05.409Z,99820.81
2023-04-01T00:35:32.079Z,99825.09
2023-04-01T00:37:59.414Z,99835.47
2023-04-01T00:40:33.358Z,99830.31
2023-04-01T00:43:00.622Z,99841.47
2023-04-01T00:45:32.509Z,99842.34
2023-04-01T00:48:03.895Z,99835.47
2023-04-01T00:50:32.438Z,99839.75
2023-04-01T00:53:01.285Z,99838.06
2023-04-01T00:55:30.256Z,99858.72
2023-04-01T00:57:59.522Z,99848.44
2023-04-01T01:00:26.327Z,99853.56
2023-04-01T01:02:53.270Z,99871.66
2023-04-01T01:05:30.752Z,99869.97
2023-04-01T01:08:12.366Z,99868.25
2023-04-01T01:10:39.918Z,99861.41
2023-04-01T01:13:22.585Z,99862.25
2023-04-01T01:16:10.936Z,99883.75
2023-04-01T01:18:53.020Z,99870.06
2023-04-01T01:21:27.809Z,99874.34
2023-04-01T01:24:15.988Z,99886.34
2023-04-01T01:27:05.677Z,99888.94
2023-04-01T01:30:03.449Z,99899.28
2023-04-01T01:32:38.763Z,99902.75
2023-04-01T01:35:30.682Z,99901.06
2023-04-01T01:38:12.084Z,99913.09
2023-04-01T01:40:44.017Z,99911.38
2023-04-01T01:43:14.932Z,99913.13
2023-04-01T01:45:47.132Z,99901.13
2023-04-01T01:48:14.028Z,99926.03
2023-04-01T01:50:42.069Z,99912.31
2023-04-01T01:53:12.745Z,99920.88
2023-04-01T01:55:41.990Z,99923.44
2023-04-01T01:58:12.805Z,99920.03
2023-04-01T02:00:43.950Z,99929.50
2023-04-01T02:03:13.353Z,99938.13
2023-04-01T02:05:40.659Z,99945.00
2023-04-01T02:08:16.494Z,99930.44
2023-04-01T02:10:50.408Z,99929.59
2023-04-01T02:13:27.556Z,99945.00
2023-04-01T02:15:58.154Z,99948.44
2023-04-01T02:18:24.685Z,99957.91
2023-04-01T02:20:52.481Z,99945.03
2023-04-01T02:23:19.530Z,99957.91
2023-04-01T02:25:47.744Z,99947.63
2023-04-01T02:28:15.394Z,99963.09
2023-04-01T02:30:44.095Z,99969.13
2023-04-01T02:33:11.113Z,99973.41
2023-04-01T02:35:37.973Z,99982.06
2023-04-01T02:38:05.622Z,99975.22
2023-04-01T02:40:43.490Z,99979.50
2023-04-01T02:43:10.447Z,99994.97
2023-04-01T02:45:36.980Z,99993.25
2023-04-01T02:48:03.820Z,99995.00
2023-04-01T02:50:30.381Z,99999.25
2023-04-01T02:52:57.148Z,99999.28
2023-04-01T02:55:23.683Z,99995.84
2023-04-01T02:57:50.253Z,100001.91
2023-04-01T03:00:17.499Z,100001.88
2023-04-01T03:02:44.130Z,100011.34
2023-04-01T03:05:10.709Z,100012.19
2023-04-01T03:07:37.303Z,100008.78
2023-04-01T03:10:04.053Z,100019.97
2023-04-01T03:12:30.634Z,100013.97
2023-04-01T03:14:58.133Z,100011.38
2023-04-01T03:17:38.542Z,100024.28
2023-04-01T03:20:05.869Z,100026.00
2023-04-01T03:22:32.635Z,100026.84
2023-04-01T03:24:59.230Z,100033.75
2023-04-01T03:27:25.758Z,100029.47
2023-04-01T03:29:52.566Z,100025.16
2023-04-01T03:32:19.618Z,100028.59
2023-04-01T03:34:46.278Z,100042.34
2023-04-01T03:37:13.987Z,100032.03
2023-04-01T03:39:42.115Z,100038.06
2023-04-01T03:42:10.222Z,100049.22
2023-04-01T03:44:36.736Z,100039.78
2023-04-01T03:47:03.311Z,100044.94
2023-04-01T03:49:30.112Z,100049.25
2023-04-01T03:51:56.626Z,100049.25
2023-04-01T03:54:23.461Z,100062.13
2023-04-01T03:56:50.132Z,100073.31
2023-04-01T03:59:16.637Z,100063.00
2023-04-01T04:01:43.330Z,100073.34
2023-04-01T04:04:12.458Z,100074.19
2023-04-01T04:06:39.471Z,100083.66
2023-04-01T04:09:06.224Z,100081.94
2023-04-01T04:11:33.421Z,100090.53
2023-04-01T04:14:00.715Z,100092.25
2023-04-01T04:16:27.335Z,100098.28
2023-04-01T04:18:58.093Z,100092.28
2023-04-01T04:21:24.636Z,100098.25
2023-04-01T04:23:51.465Z,100109.47
2023-04-01T04:26:19.371Z,100117.16
2023-04-01T04:28:55.272Z,100106.88
2023-04-01T04:31:24.117Z,100112.03
2023-04-01T04:33:53.067Z,100124.03
2023-04-01T04:36:20.441Z,100131.81
2023-04-01T04:38:49.065Z,100126.66
2023-04-01T04:41:17.728Z,100134.38
2023-04-01T04:43:56.104Z,100124.91
2023-04-01T04:46:24.595Z,100134.38
2023-04-01T04:48:57.588Z,100128.38
2023-04-01T04:51:24.612Z,100131.81
2023-04-01T04:53:52.982Z,100138.69
2023-04-01T04:56:27.144Z,100130.09
2023-04-01T04:59:06.360Z,100136.13
2023-04-01T05:01:42.165Z,100152.47
2023-04-01T05:04:08.751Z,100139.56
2023-04-01T05:06:35.356Z,100155.88
2023-04-01T05:09:02.453Z,100163.63
2023-04-01T05:11:28.931Z,100156.75
2023-04-01T05:13:57.026Z,100166.19
2023-04-01T05:16:23.616Z,100171.38
2023-04-01T05:18:50.220Z,100171.34
2023-04-01T05:21:16.819Z,100178.25
2023-04-01T05:23:43.496Z,100188.56
2023-04-01T05:26:15.559Z,100175.69
2023-04-01T05:28:42.688Z,100189.41
2023-04-01T05:31:09.651Z,100196.31
2023-04-01T05:33:39.637Z,100199.72
2023-04-01T05:36:14.354Z,100199.75
2023-04-01T05:38:41.931Z,100195.44
2023-04-01T05:41:10.696Z,100197.16
2023-04-01T05:43:42.452Z,100198.00
2023-04-01T05:46:27.569Z,100208.34
2023-04-01T05:48:59.553Z,100211.75
2023-04-01T05:51:26.963Z,100224.66
2023-04-01T05:53:53.398Z,100217.81
2023-04-01T05:56:19.926Z,100221.25
2023-04-01T05:58:52.713Z,100216.94
2023-04-01T06:01:21.274Z,100224.66
2023-04-01T06:03:48.641Z,100229.84
2023-04-01T06:06:26.411Z,100235.00
2023-04-01T06:08:58.037Z,100233.28
2023-04-01T06:11:49.612Z,100247.00
2023-04-01T06:14:16.350Z,100253.91
2023-04-01T06:16:52.865Z,100249.63
2023-04-01T06:19:41.261Z,100254.75
2023-04-01T06:22:29.667Z,100252.19
2023-04-01T06:25:22.361Z,100254.78
2023-04-01T06:27:54.880Z,100264.22
2023-04-01T06:30:33.045Z,100254.75
2023-04-01T06:33:06.991Z,100269.38
2023-04-01T06:36:12.563Z,100265.91
2023-04-01T06:38:52.417Z,100273.66
2023-04-01T06:41:40.841Z,100277.97
2023-04-01T06:44:24.483Z,100289.13
2023-04-01T06:47:27.768Z,100305.47
2023-04-01T06:50:25.286Z,100291.69
2023-04-01T06:53:16.206Z,100298.56
2023-04-01T06:56:06.498Z,100302.88
2023-04-01T06:58:45.119Z,100307.19
2023-04-01T07:01:17.846Z,100308.91
2023-04-01T07:03:50.780Z,100315.78
2023-04-01T07:06:32.469Z,100319.22
2023-04-01T07:09:06.243Z,100333.88
2023-04-01T07:11:57.636Z,100312.34
2023-04-01T07:14:44.591Z,100314.06
2023-04-01T07:17:33.738Z,100328.69
2023-04-01T07:20:18.690Z,100332.13
2023-04-01T07:22:49.101Z,100326.13
2023-04-01T07:25:47.484Z,100333.88
2023-04-01T07:28:33.507Z,100338.16
2023-04-01T07:31:26.112Z,100332.97
2023-04-01T07:33:55.621Z,100350.22
2023-04-01T07:36:47.397Z,100339.88
2023-04-01T07:39:41.368Z,100330.44
2023-04-01T07:42:46.647Z,100357.97
2023-04-01T07:45:42.570Z,100346.78
2023-04-01T07:48:31.473Z,100354.56
2023-04-01T07:51:18.285Z,100358.84
2023-04-01T07:54:07.183Z,100356.25
2023-04-01T07:56:58.436Z,100374.34
2023-04-01T07:59:40.242Z,100376.06
2023-04-01T08:02:55.185Z,100384.66
2023-04-01T08:05:53.974Z,100394.13
2023-04-01T08:08:39.318Z,100392.41
2023-04-01T08:11:22.492Z,100405.28
2023-04-01T08:14:22.438Z,100408.75
2023-04-01T08:17:22.669Z,100407.84
2023-04-01T08:20:31.578Z,100418.19
2023-04-01T08:23:16.322Z,100425.09
2023-04-01T08:26:03.118Z,100425.09
2023-04-01T08:28:51.237Z,100425.97
2023-04-01T08:31:38.702Z,100432.00
2023-04-01T08:34:15.537Z,100443.19
2023-04-01T08:36:49.414Z,100436.28
2023-04-01T08:39:24.594Z,100443.19
2023-04-01T08:42:32.620Z,100454.41
2023-04-01T08:45:22.588Z,100455.25
2023-04-01T08:48:33.869Z,100457.84
2023-04-01T08:51:23.667Z,100469.06
2023-04-01T08:54:05.229Z,100463.00
2023-04-01T08:56:42.318Z,100461.31
2023-04-01T09:00:06.334Z,100466.47
2023-04-01T09:03:16.162Z,100475.94
2023-04-01T09:06:04.614Z,100467.31
2023-04-01T09:08:46.441Z,100480.25
2023-04-01T09:11:31.885Z,100481.97
2023-04-01T09:14:39.002Z,100469.88
2023-04-01T09:18:13.735Z,100493.13
2023-04-01T09:20:57.054Z,100494.88
2023-04-01T09:23:34.330Z,100479.38
2023-04-01T09:26:33.004Z,100497.47
2023-04-01T09:29:24.651Z,100508.66
2023-04-01T09:32:25.718Z,100506.97
2023-04-01T09:35:39.991Z,100500.06
2023-04-01T09:38:09.787Z,100514.69
2023-04-01T09:41:02.044Z,100513.88
2023-04-01T09:44:26.163Z,100508.69
2023-04-01T09:47:06.495Z,100525.94
2023-04-01T09:49:44.925Z,100503.53
2023-04-01T09:52:29.341Z,100534.59
2023-04-01T09:55:43.211Z,100530.28
2023-04-01T09:58:43.806Z,100530.31
2023-04-01T10:01:22.522Z,100532.03
2023-04-01T10:04:04.491Z,100539.78
2023-04-01T10:06:57.700Z,100538.03
2023-04-01T10:10:03.240Z,100557.00
2023-04-01T10:12:58.842Z,100560.44
2023-04-01T10:15:31.479Z,100557.00
2023-04-01T10:18:13.822Z,100560.44
2023-04-01T10:21:00.422Z,100567.34
2023-04-01T10:24:01.096Z,100571.66
2023-04-01T10:26:32.351Z,100582.00
2023-04-01T10:29:38.530Z,100576.78
2023-04-01T10:32:56.900Z,100591.44
2023-04-01T10:35:51.809Z,100593.97
2023-04-01T10:38:56.680Z,100597.44
2023-04-01T10:41:32.080Z,100605.19
2023-04-01T10:45:01.781Z,100609.47
2023-04-01T10:47:54.274Z,100603.47
2023-04-01T10:50:27.101Z,100615.53
2023-04-01T10:53:11.879Z,100627.53
2023-04-01T10:56:30.228Z,100613.75
2023-04-01T10:59:31.607Z,100626.66
2023-04-01T11:02:45.776Z,100618.91
2023-04-01T11:06:06.366Z,100633.63
2023-04-01T11:08:32.860Z,100638.78
2023-04-01T11:11:18.261Z,100653.44
2023-04-01T11:14:28.115Z,100630.16
2023-04-01T11:17:24.159Z,100635.38
2023-04-01T11:20:10.416Z,100648.28
2023-04-01T11:22:52.056Z,100653.47
2023-04-01T11:25:37.032Z,100662.09
2023-04-01T11:28:43.726Z,100658.66
2023-04-01T11:31:27.008Z,100665.56
2023-04-01T11:33:56.553Z,100663.00
2023-04-01T11:36:37.488Z,100675.09
2023-04-01T11:39:17.014Z,100678.53
2023-04-01T11:42:12.054Z,100671.63
2023-04-01T11:45:31.968Z,100675.94
2023-04-01T11:47:58.725Z,100690.63
2023-04-01T11:50:50.670Z,100688.03
2023-04-01T11:53:27.873Z,100698.41
2023-04-01T11:56:07.602Z,100694.09
2023-04-01T11:59:05.552Z,100706.19
2023-04-01T12:01:43.970Z,100698.44
2023-04-01T12:04:27.791Z,100713.09
2023-04-01T12:07:04.882Z,100723.47
2023-04-01T12:09:53.498Z,100723.47
2023-04-01T12:12:54.155Z,100731.19
2023-04-01T12:15:35.989Z,100730.38
2023-04-01T12:18:27.295Z,100738.13
2023-04-01T12:21:11.844Z,100740.72
2023-04-01T12:24:05.185Z,100743.31
2023-04-01T12:27:03.237Z,100749.34
2023-04-01T12:29:29.645Z,100738.13
2023-04-01T12:32:26.244Z,100745.88
2023-04-01T12:35:04.998Z,100751.03
2023-04-01T12:37:48.337Z,100744.16
2023-04-01T12:40:21.655Z,100739.84
2023-04-01T12:43:09.912Z,100757.06
2023-04-01T12:45:45.857Z,100743.28
2023-04-01T12:48:15.258Z,100762.28
2023-04-01T12:50:41.669Z,100755.34
2023-04-01T12:53:51.996Z,100763.97
2023-04-01T12:56:30.521Z,100770.03
2023-04-01T12:59:19.796Z,100769.16
2023-04-01T13:01:56.289Z,100779.50
2023-04-01T13:04:31.568Z,100778.66
2023-04-01T13:07:24.365Z,100782.09
2023-04-01T13:10:26.220Z,100782.09
2023-04-01T13:12:58.865Z,100782.97
2023-04-01T13:15:55.626Z,100782.97
2023-04-01T13:18:31.009Z,100781.25
2023-04-01T13:21:00.553Z,100794.22
2023-04-01T13:23:37.665Z,100777.81
2023-04-01T13:26:33.207Z,100801.97
2023-04-01T13:28:59.612Z,100803.66
2023-04-01T13:31:34.917Z,100808.84
2023-04-01T13:34:17.368Z,100802.81
2023-04-01T13:36:57.277Z,100820.09
2023-04-01T13:39:35.961Z,100833.03
2023-04-01T13:42:13.960Z,100811.47
2023-04-01T13:44:58.293Z,100822.69
2023-04-01T13:47:50.756Z,100830.47
2023-04-01T13:50:49.180Z,100832.16
2023-04-01T13:53:43.370Z,100841.66
2023-04-01T13:56:21.924Z,100839.94
2023-04-01T13:58:57.174Z,100839.97
2023-04-01T14:01:31.793Z,100839.09
2023-04-01T14:04:23.636Z,100850.34
2023-04-01T14:07:16.756Z,100846.91
2023-04-01T14:09:46.407Z,100857.28
2023-04-01T14:13:04.192Z,100858.97
2023-04-01T14:15:57.797Z,100853.81
2023-04-01T14:19:01.889Z,100870.25
2023-04-01T14:21:39.192Z,100875.41
2023-04-01T14:24:14.830Z,100880.59
2023-04-01T14:27:02.490Z,100878.88
2023-04-01T14:29:57.711Z,100887.50
2023-04-01T14:32:47.185Z,100886.66
2023-04-01T14:35:25.211Z,100890.06
2023-04-01T14:38:20.914Z,100895.25
2023-04-01T14:40:56.142Z,100896.16
2023-04-01T14:43:53.981Z,100896.97
2023-04-01T14:46:47.133Z,100903.00
2023-04-01T14:49:31.830Z,100908.22
2023-04-01T14:52:06.809Z,100908.16
2023-04-01T14:54:41.239Z,100921.13
2023-04-01T14:57:12.506Z,100924.56
2023-04-01T14:59:59.267Z,100920.28
2023-04-01T15:02:43.699Z,100917.66
2023-04-01T15:05:42.202Z,100915.03
2023-04-01T15:08:30.162Z,100934.91
2023-04-01T15:11:24.499Z,100942.72
2023-04-01T15:14:02.738Z,100944.41
2023-04-01T15:16:50.688Z,100945.28
2023-04-01T15:19:39.796Z,100960.81
2023-04-01T15:22:28.275Z,100954.72
2023-04-01T15:25:18.675Z,100957.31
2023-04-01T15:28:21.954Z,100966.81
2023-04-01T15:31:10.718Z,100962.47
2023-04-01T15:33:53.428Z,100981.44
2023-04-01T15:36:23.026Z,100989.22
2023-04-01T15:38:54.523Z,100989.22
2023-04-01T15:41:39.813Z,100987.50
2023-04-01T15:44:28.932Z,100995.22
2023-04-01T15:46:57.951Z,100994.34
2023-04-01T15:49:44.483Z,101009.91
2023-04-01T15:52:35.758Z,101019.38
2023-04-01T15:55:14.778Z,101027.13
2023-04-01T15:58:36.646Z,101034.88
2023-04-01T16:01:09.397Z,101037.44
2023-04-01T16:03:44.250Z,101033.94
2023-04-01T16:06:25.596Z,101039.13
2023-04-01T16:09:12.662Z,101047.78
2023-04-01T16:12:01.465Z,101059.00
2023-04-01T16:14:27.970Z,101057.22
2023-04-01T16:17:06.757Z,101060.63
2023-04-01T16:19:52.012Z,101063.16
2023-04-01T16:22:54.501Z,101076.94
2023-04-01T16:25:32.027Z,101063.91
2023-04-01T16:28:17.390Z,101071.63
2023-04-01T16:30:49.378Z,101088.03
2023-04-01T16:33:36.981Z,101093.19
2023-04-01T16:36:06.475Z,101097.47
2023-04-01T16:39:02.318Z,101088.78
2023-04-01T16:41:39.684Z,101086.13
2023-04-01T16:44:18.352Z,101105.09
2023-04-01T16:46:54.707Z,101086.91
2023-04-01T16:49:30.374Z,101102.47
2023-04-01T16:52:11.850Z,101117.16
2023-04-01T16:55:16.402Z,101119.72
2023-04-01T16:58:02.060Z,101110.97
2023-04-01T17:00:31.962Z,101133.41
2023-04-01T17:03:07.797Z,101134.25
2023-04-01T17:06:00.256Z,101134.19
2023-04-01T17:08:36.573Z,101147.13
2023-04-01T17:11:37.308Z,101151.41
2023-04-01T17:14:39.761Z,101153.06
2023-04-01T17:17:33.852Z,101164.28
2023-04-01T17:20:26.888Z,101178.03
2023-04-01T17:22:59.707Z,101181.47
2023-04-01T17:25:42.339Z,101183.13
2023-04-01T17:28:33.294Z,101190.00
2023-04-01T17:31:05.748Z,101198.56
2023-04-01T17:33:47.175Z,101197.69
2023-04-01T17:36:42.674Z,101208.03
2023-04-01T17:39:18.023Z,101222.63
2023-04-01T17:42:05.689Z,101219.94
2023-04-01T17:44:38.095Z,101225.13
2023-04-01T17:47:40.667Z,101230.28
2023-04-01T17:50:22.164Z,101237.19
2023-04-01T17:53:05.114Z,101244.06
2023-04-01T17:55:50.421Z,101239.69
2023-04-01T17:58:22.912Z,101244.03
2023-04-01T18:01:14.393Z,101257.94
2023-04-01T18:03:43.932Z,101260.53
2023-04-01T18:06:30.546Z,101260.50
2023-04-01T18:09:10.742Z,101262.97
2023-04-01T18:11:52.226Z,101283.69
2023-04-01T18:14:21.492Z,101281.94
2023-04-01T18:17:04.987Z,101281.94
2023-04-01T18:19:49.627Z,101293.97
2023-04-01T18:22:34.396Z,101300.84
2023-04-01T18:25:31.870Z,101307.66
2023-04-01T18:28:37.015Z,101312.78
2023-04-01T18:31:03.496Z,101319.66
2023-04-01T18:33:45.470Z,101330.81
2023-04-01T18:36:23.953Z,101332.47
2023-04-01T18:38:55.799Z,101331.53
2023-04-01T18:41:40.748Z,101350.47
2023-04-01T18:44:19.448Z,101346.09
2023-04-01T18:47:03.951Z,101359.00
2023-04-01T18:49:42.292Z,101362.34
2023-04-01T18:52:19.197Z,101364.06
2023-04-01T18:55:03.837Z,101364.00
2023-04-01T18:57:55.219Z,101379.44
2023-04-01T19:00:26.703Z,101374.19
2023-04-01T19:03:09.822Z,101394.94
2023-04-01T19:05:40.540Z,101389.72
2023-04-01T19:08:31.632Z,101408.69
2023-04-01T19:11:22.921Z,101404.31
2023-04-01T19:14:01.502Z,101413.75
2023-04-01T19:16:53.485Z,101414.53
2023-04-01T19:19:27.862Z,101429.16
2023-04-01T19:21:59.141Z,101424.81
2023-04-01T19:24:50.349Z,101435.94
2023-04-01T19:27:36.334Z,101443.69
2023-04-01T19:30:02.768Z,101438.53
2023-04-01T19:32:50.831Z,101459.19
2023-04-01T19:35:35.322Z,101443.50
2023-04-01T19:38:12.910Z,101448.69
2023-04-01T19:40:51.966Z,101455.66
2023-04-01T19:43:30.304Z,101459.94
2023-04-01T19:46:28.096Z,101465.00
2023-04-01T19:49:33.552Z,101466.69
2023-04-01T19:52:06.045Z,101470.13
2023-04-01T19:54:48.328Z,101471.81
2023-04-01T19:57:36.038Z,101474.34
2023-04-01T20:00:26.430Z,101483.78
2023-04-01T20:03:02.183Z,101489.81
2023-04-01T20:05:59.928Z,101490.69
2023-04-01T20:08:32.858Z,101507.94
2023-04-01T20:11:22.535Z,101508.75
2023-04-01T20:13:49.245Z,101513.09
2023-04-01T20:16:16.503Z,101521.66
2023-04-01T20:18:49.898Z,101519.03
2023-04-01T20:21:25.374Z,101529.38
2023-04-01T20:24:15.536Z,101524.19
2023-04-01T20:26:48.754Z,101533.59
2023-04-01T20:29:32.303Z,101534.53
2023-04-01T20:32:04.712Z,101539.69
2023-04-01T20:34:34.062Z,101549.13
2023-04-01T20:37:16.207Z,101549.13
2023-04-01T20:40:01.595Z,101551.72
2023-04-01T20:42:46.309Z,101556.88
2023-04-01T20:45:36.244Z,101544.72
2023-04-01T20:48:21.958Z,101562.91
2023-04-01T20:51:08.911Z,101568.06
2023-04-01T20:53:52.055Z,101575.81
2023-04-01T20:56:43.000Z,101574.94
2023-04-01T20:59:36.764Z,101587.00
2023-04-01T21:02:12.193Z,101590.41
2023-04-01T21:04:56.901Z,101569.47
2023-04-01T21:07:34.837Z,101585.03
2023-04-01T21:10:34.075Z,101592.78
2023-04-01T21:13:18.767Z,101608.34
2023-04-01T21:16:04.383Z,101608.34
2023-04-01T21:18:53.871Z,101597.75
2023-04-01T21:21:42.190Z,101622.03
2023-04-01T21:24:14.405Z,101627.19
2023-04-01T21:26:56.017Z,101631.47
2023-04-01T21:29:48.438Z,101632.31
2023-04-01T21:32:39.719Z,101639.94
2023-04-01T21:35:35.084Z,101645.06
2023-04-01T21:38:29.683Z,101655.38
2023-04-01T21:41:17.400Z,101660.53
2023-04-01T21:44:58.806Z,101658.69
2023-04-01T21:47:46.181Z,101663.94
2023-04-01T21:50:44.898Z,101677.69
2023-04-01T21:53:17.172Z,101679.38
2023-04-01T21:55:52.497Z,101686.25
2023-04-01T21:58:40.645Z,101684.50
2023-04-01T22:01:19.199Z,101692.22
2023-04-01T22:03:57.752Z,101690.47
2023-04-01T22:06:38.967Z,101705.06
2023-04-01T22:09:32.429Z,101708.41
2023-04-01T22:12:10.712Z,101699.59
2023-04-01T22:15:18.497Z,101702.28
2023-04-01T22:18:14.466Z,101711.72
2023-04-01T22:20:56.834Z,101705.53
2023-04-01T22:23:33.567Z,101709.75
2023-04-01T22:26:09.394Z,101712.34
2023-04-01T22:28:43.437Z,101733.91
2023-04-01T22:31:15.477Z,101720.84
2023-04-01T22:33:48.083Z,101731.31
2023-04-01T22:36:29.914Z,101741.66
2023-04-01T22:39:02.660Z,101740.72
2023-04-01T22:42:30.638Z,101750.16
2023-04-01T22:45:02.207Z,101750.09
2023-04-01T22:47:28.650Z,101762.94
2023-04-01T22:50:04.645Z,101762.00
2023-04-01T22:52:40.803Z,101764.59
2023-04-01T22:55:39.098Z,101766.25
2023-04-01T22:58:26.330Z,101756.63
2023-04-01T23:00:59.420Z,101774.88
2023-04-01T23:03:33.653Z,101773.94
2023-04-01T23:06:02.699Z,101755.56
2023-04-01T23:09:05.804Z,101781.63
2023-04-01T23:11:50.205Z,101786.75
2023-04-01T23:14:22.427Z,101793.69
2023-04-01T23:16:52.883Z,101786.56
2023-04-01T23:19:23.206Z,101795.22
2023-04-01T23:22:13.053Z,101794.31
2023-04-01T23:24:50.211Z,101800.50
2023-04-01T23:27:26.312Z,101807.34
2023-04-01T23:29:53.032Z,101807.34
2023-04-01T23:32:23.081Z,101805.50
2023-04-01T23:34:52.296Z,101821.94
2023-04-01T23:37:20.078Z,101830.56
2023-04-01T23:39:51.897Z,101828.94
2023-04-01T23:42:27.179Z,101840.06
2023-04-01T23:44:58.670Z,101833.16
2023-04-01T23:47:30.028Z,101826.13
2023-04-01T23:50:04.720Z,101842.63
2023-04-01T23:52:36.810Z,101850.47
2023-04-01T23:55:22.600Z,101848.78
2023-04-01T23:58:08.499Z,101842.56
